createdAt,value
2018-06-27T00:00:29.116Z,75.70
2018-06-27T00:02:57.565Z,75.70
2018-06-27T00:05:26.086Z,75.90
2018-06-27T00:07:54.475Z,76.20
2018-06-27T00:10:22.862Z,76.50
2018-06-27T00:12:51.269Z,76.70
2018-06-27T00:15:20.649Z,76.80
2018-06-27T00:17:49.053Z,76.80
2018-06-27T00:20:17.445Z,77.10
2018-06-27T00:25:13.947Z,77.30
2018-06-27T00:27:42.305Z,77.10
2018-06-27T00:30:10.699Z,77.50
2018-06-27T00:32:39.074Z,77.80
2018-06-27T00:35:07.460Z,78.00
2018-06-27T00:37:35.849Z,78.20
2018-06-27T00:40:04.250Z,78.30
2018-06-27T00:42:32.643Z,78.40
2018-06-27T00:47:29.138Z,78.80
2018-06-27T00:49:57.525Z,78.90
2018-06-27T00:52:25.912Z,79.20
2018-06-27T00:54:54.265Z,79.30
2018-06-27T00:57:22.636Z,79.40
2018-06-27T00:59:51.024Z,79.60
2018-06-27T01:02:19.569Z,79.60
2018-06-27T01:04:48.311Z,79.80
2018-06-27T01:07:16.736Z,80.00
2018-06-27T01:09:45.113Z,80.20
2018-06-27T01:14:41.713Z,80.40
2018-06-27T01:17:11.144Z,80.50
2018-06-27T01:19:39.507Z,80.60
2018-06-27T01:22:07.869Z,80.70
2018-06-27T01:24:36.271Z,80.70
2018-06-27T01:27:04.742Z,80.60
2018-06-27T01:29:33.429Z,80.70
2018-06-27T01:32:01.788Z,80.80
2018-06-27T01:34:30.186Z,80.90
2018-06-27T01:36:58.550Z,81.00
2018-06-27T01:39:26.910Z,81.20
2018-06-27T01:41:55.316Z,81.30
2018-06-27T01:44:23.774Z,81.50
2018-06-27T01:46:52.208Z,81.60
2018-06-27T01:49:20.614Z,81.70
2018-06-27T01:51:49.029Z,81.70
2018-06-27T01:54:17.453Z,81.80
2018-06-27T01:56:45.914Z,82.10
2018-06-27T01:59:14.355Z,82.00
2018-06-27T02:01:42.700Z,81.90
2018-06-27T02:04:11.169Z,82.00
2018-06-27T02:06:39.573Z,82.20
2018-06-27T02:09:09.414Z,82.40
2018-06-27T02:11:37.900Z,83.30
2018-06-27T02:14:06.361Z,82.50
2018-06-27T02:16:35.141Z,82.60
2018-06-27T02:19:03.572Z,82.80
2018-06-27T02:21:32.878Z,82.80
2018-06-27T02:24:01.459Z,83.00
2018-06-27T02:26:29.831Z,83.20
2018-06-27T02:28:58.319Z,83.30
2018-06-27T02:31:26.719Z,83.40
2018-06-27T02:33:55.142Z,83.40
2018-06-27T02:36:23.472Z,83.50
2018-06-27T02:38:52.369Z,83.40
2018-06-27T02:41:20.744Z,83.50
2018-06-27T02:43:49.091Z,83.50
2018-06-27T02:46:17.469Z,84.00
2018-06-27T02:48:45.815Z,83.50
2018-06-27T02:51:14.224Z,83.50
2018-06-27T02:53:42.590Z,83.30
2018-06-27T02:56:11.667Z,83.30
2018-06-27T02:58:40.051Z,83.30
2018-06-27T03:01:08.432Z,83.30
2018-06-27T03:03:36.866Z,83.50
2018-06-27T03:06:05.434Z,83.60
2018-06-27T03:08:33.787Z,83.60
2018-06-27T03:11:02.314Z,83.80
2018-06-27T03:13:30.700Z,83.90
2018-06-27T03:15:59.682Z,84.40
2018-06-27T03:18:28.702Z,84.00
2018-06-27T03:20:57.211Z,83.80
2018-06-27T03:23:25.677Z,83.60
2018-06-27T03:25:54.066Z,84.00
2018-06-27T03:28:22.424Z,83.40
2018-06-27T03:30:50.841Z,83.40
2018-06-27T03:33:19.480Z,83.50
2018-06-27T03:35:47.943Z,83.30
2018-06-27T03:38:16.425Z,83.50
2018-06-27T03:40:44.796Z,83.80
2018-06-27T03:43:13.280Z,83.80
2018-06-27T03:45:41.697Z,83.80
2018-06-27T03:48:10.102Z,83.70
2018-06-27T03:50:38.516Z,83.70
2018-06-27T03:53:06.867Z,83.80
2018-06-27T03:58:03.502Z,83.80
2018-06-27T04:00:31.863Z,83.80
2018-06-27T04:03:00.220Z,83.50
2018-06-27T04:05:28.618Z,83.50
2018-06-27T04:07:57.034Z,83.60
2018-06-27T04:10:25.388Z,83.60
2018-06-27T04:12:54.103Z,83.60
2018-06-27T04:15:22.476Z,83.60
2018-06-27T04:17:52.693Z,83.50
2018-06-27T04:20:21.068Z,84.30
2018-06-27T04:22:50.641Z,83.20
2018-06-27T04:25:18.960Z,83.00
2018-06-27T04:27:47.373Z,82.80
2018-06-27T04:30:15.740Z,82.40
2018-06-27T04:35:12.221Z,81.90
2018-06-27T04:37:40.581Z,81.40
2018-06-27T04:40:08.955Z,81.10
2018-06-27T04:42:37.313Z,81.00
2018-06-27T04:45:05.758Z,81.00
2018-06-27T04:47:34.155Z,80.80
2018-06-27T04:50:02.498Z,80.90
2018-06-27T04:52:30.914Z,80.80
2018-06-27T04:54:59.405Z,80.70
2018-06-27T04:57:27.806Z,80.40
2018-06-27T04:59:56.173Z,81.00
2018-06-27T05:02:25.432Z,80.40
2018-06-27T05:04:53.857Z,80.90
2018-06-27T05:07:22.359Z,80.10
2018-06-27T05:09:50.733Z,79.90
2018-06-27T05:12:19.136Z,79.70
2018-06-27T05:14:47.471Z,79.70
2018-06-27T05:17:15.902Z,79.40
2018-06-27T05:19:44.681Z,79.80
2018-06-27T05:22:13.947Z,78.30
2018-06-27T05:24:42.663Z,77.90
2018-06-27T05:27:11.020Z,77.20
2018-06-27T05:29:39.388Z,77.10
2018-06-27T05:32:07.866Z,76.90
2018-06-27T05:34:36.284Z,76.50
2018-06-27T05:37:04.655Z,75.90
2018-06-27T05:39:33.052Z,75.70
2018-06-27T05:42:01.472Z,75.50
2018-06-27T05:44:29.920Z,74.50
2018-06-27T05:46:58.331Z,74.20
2018-06-27T05:49:26.919Z,73.60
2018-06-27T05:51:55.325Z,73.50
2018-06-27T05:54:24.362Z,73.50
2018-06-27T05:56:52.930Z,73.40
2018-06-27T05:59:21.374Z,72.30
2018-06-27T06:01:49.785Z,72.30
2018-06-27T06:04:19.232Z,72.50
2018-06-27T06:06:47.618Z,71.40
2018-06-27T06:09:16.047Z,71.70
2018-06-27T06:11:45.410Z,70.70
2018-06-27T06:14:13.876Z,69.80
2018-06-27T06:16:42.376Z,69.60
2018-06-27T06:19:10.774Z,69.60
2018-06-27T06:21:39.185Z,69.40
2018-06-27T06:24:07.717Z,69.50
2018-06-27T06:26:36.155Z,69.70
2018-06-27T06:29:04.647Z,69.30
2018-06-27T06:31:33.077Z,68.60
2018-06-27T06:36:29.675Z,68.10
2018-06-27T06:38:58.259Z,67.30
2018-06-27T06:41:26.623Z,66.70
2018-06-27T06:43:55.095Z,65.90
2018-06-27T06:46:23.488Z,66.00
2018-06-27T06:48:51.980Z,66.10
2018-06-27T06:51:20.342Z,65.50
2018-06-27T06:53:48.705Z,64.80
2018-06-27T06:56:17.146Z,64.50
2018-06-27T06:58:45.542Z,63.70
2018-06-27T07:01:13.979Z,63.50
2018-06-27T07:03:42.564Z,63.50
2018-06-27T07:06:11.019Z,62.70
2018-06-27T07:08:39.376Z,62.30
2018-06-27T07:11:07.785Z,62.30
2018-06-27T07:13:36.184Z,61.80
2018-06-27T07:16:04.565Z,60.00
2018-06-27T07:18:32.906Z,59.30
2018-06-27T07:21:01.296Z,58.90
2018-06-27T07:23:29.680Z,58.80
2018-06-27T07:25:58.108Z,58.30
2018-06-27T07:28:26.567Z,58.20
2018-06-27T07:33:22.978Z,57.50
2018-06-27T07:35:51.332Z,57.00
2018-06-27T07:38:19.775Z,56.00
2018-06-27T07:40:48.157Z,55.90
2018-06-27T07:43:16.555Z,56.00
2018-06-27T07:45:44.926Z,55.50
2018-06-27T07:48:13.289Z,55.40
2018-06-27T07:50:41.700Z,55.30
2018-06-27T07:53:10.843Z,55.30
2018-06-27T07:55:39.247Z,54.30
2018-06-27T07:58:07.639Z,54.60
2018-06-27T08:00:36.068Z,54.00
2018-06-27T08:03:04.416Z,53.90
2018-06-27T08:05:32.791Z,53.40
2018-06-27T08:08:01.222Z,53.40
2018-06-27T08:10:29.574Z,53.60
2018-06-27T08:12:58.003Z,52.90
2018-06-27T08:15:26.410Z,52.50
2018-06-27T08:17:54.898Z,52.80
2018-06-27T08:20:23.173Z,50.70
2018-06-27T08:22:51.568Z,50.20
2018-06-27T08:25:20.011Z,49.90
2018-06-27T08:27:48.435Z,49.70
2018-06-27T08:30:16.842Z,49.10
2018-06-27T08:32:45.295Z,48.90
2018-06-27T08:35:13.667Z,48.10
2018-06-27T08:37:42.117Z,49.30
2018-06-27T08:40:10.561Z,48.90
2018-06-27T08:42:39.002Z,49.20
2018-06-27T08:45:07.441Z,48.10
2018-06-27T08:47:35.846Z,47.40
2018-06-27T08:50:04.388Z,46.80
2018-06-27T08:52:32.754Z,46.20
2018-06-27T08:55:01.204Z,46.50
2018-06-27T08:57:29.615Z,46.70
2018-06-27T08:59:58.023Z,45.80
2018-06-27T09:02:26.593Z,45.50
2018-06-27T09:04:55.038Z,45.00
2018-06-27T09:07:23.596Z,45.30
2018-06-27T09:09:52.031Z,45.70
2018-06-27T09:12:20.484Z,45.50
2018-06-27T09:14:48.918Z,45.30
2018-06-27T09:17:17.313Z,45.00
2018-06-27T09:19:45.721Z,45.80
2018-06-27T09:22:14.133Z,45.30
2018-06-27T09:24:43.338Z,45.20
2018-06-27T09:27:12.553Z,44.80
2018-06-27T09:29:40.972Z,45.30
2018-06-27T09:32:09.351Z,45.30
2018-06-27T09:34:37.771Z,44.60
2018-06-27T09:37:06.205Z,44.30
2018-06-27T09:39:34.628Z,43.50
2018-06-27T09:42:03.034Z,43.00
2018-06-27T09:44:31.413Z,43.20
2018-06-27T09:46:59.903Z,43.20
2018-06-27T09:49:28.375Z,43.50
2018-06-27T09:51:56.756Z,43.00
2018-06-27T09:54:25.153Z,42.70
2018-06-27T09:56:53.749Z,43.20
2018-06-27T09:59:22.134Z,42.40
2018-06-27T10:01:50.747Z,42.50
2018-06-27T10:04:19.175Z,42.10
2018-06-27T10:06:47.537Z,41.70
2018-06-27T10:09:15.901Z,41.00
2018-06-27T10:11:44.263Z,41.30
2018-06-27T10:14:12.657Z,42.20
2018-06-27T10:16:41.029Z,41.90
2018-06-27T10:19:09.497Z,42.10
2018-06-27T10:21:37.969Z,42.40
2018-06-27T10:24:06.381Z,42.30
2018-06-27T10:26:34.753Z,41.50
2018-06-27T10:31:31.449Z,41.90
2018-06-27T10:33:59.795Z,41.20
2018-06-27T10:36:28.164Z,41.10
2018-06-27T10:38:56.542Z,40.80
2018-06-27T10:43:53.092Z,39.90
2018-06-27T10:46:21.880Z,37.30
2018-06-27T10:48:50.223Z,38.10
2018-06-27T10:51:18.725Z,38.00
2018-06-27T10:53:47.109Z,38.60
2018-06-27T10:56:15.456Z,38.30
2018-06-27T10:58:44.444Z,37.80
2018-06-27T11:01:12.946Z,37.20
2018-06-27T11:03:41.305Z,37.30
2018-06-27T11:06:10.014Z,37.70
2018-06-27T11:08:38.573Z,38.20
2018-06-27T11:11:06.974Z,38.40
2018-06-27T11:13:35.650Z,38.40
2018-06-27T11:16:04.113Z,37.90
2018-06-27T11:18:32.593Z,38.10
2018-06-27T11:21:01.056Z,38.20
2018-06-27T11:23:29.505Z,38.00
2018-06-27T11:25:57.932Z,37.30
2018-06-27T11:28:26.326Z,36.70
2018-06-27T11:30:54.697Z,35.30
2018-06-27T11:33:23.079Z,35.10
2018-06-27T11:35:51.487Z,35.80
2018-06-27T11:38:19.914Z,36.40
2018-06-27T11:40:48.299Z,36.50
2018-06-27T11:43:16.706Z,37.00
2018-06-27T11:45:45.185Z,37.00
2018-06-27T11:48:14.204Z,37.20
2018-06-27T11:50:42.630Z,36.60
2018-06-27T11:53:11.102Z,36.00
2018-06-27T11:55:39.488Z,34.50
2018-06-27T11:58:07.840Z,34.20
2018-06-27T12:00:36.312Z,34.00
2018-06-27T12:03:04.748Z,35.00
2018-06-27T12:05:33.152Z,34.80
2018-06-27T12:08:01.514Z,34.90
2018-06-27T12:10:29.947Z,35.00
2018-06-27T12:12:58.395Z,35.40
2018-06-27T12:15:26.763Z,35.10
2018-06-27T12:17:55.286Z,34.30
2018-06-27T12:20:24.204Z,33.20
2018-06-27T12:22:52.720Z,33.50
2018-06-27T12:25:22.044Z,33.70
2018-06-27T12:27:50.495Z,33.70
2018-06-27T12:30:22.069Z,33.80
2018-06-27T12:32:51.066Z,33.50
2018-06-27T12:35:20.662Z,33.50
2018-06-27T12:37:49.244Z,34.10
2018-06-27T12:40:17.928Z,35.10
2018-06-27T12:42:46.341Z,35.30
2018-06-27T12:45:14.827Z,35.80
2018-06-27T12:47:43.601Z,34.80
2018-06-27T12:50:12.034Z,34.70
2018-06-27T12:52:40.572Z,33.50
2018-06-27T12:55:11.731Z,32.70
2018-06-27T12:57:40.168Z,32.60
2018-06-27T13:00:09.718Z,33.10
2018-06-27T13:02:38.156Z,32.00
2018-06-27T13:05:07.521Z,32.50
2018-06-27T13:07:35.923Z,32.10
2018-06-27T13:10:05.053Z,31.80
2018-06-27T13:12:33.488Z,32.20
2018-06-27T13:15:01.907Z,31.70
2018-06-27T13:17:30.305Z,31.30
2018-06-27T13:19:58.793Z,30.60
2018-06-27T13:22:27.182Z,30.10
2018-06-27T13:24:55.561Z,29.90
2018-06-27T13:27:24.537Z,29.20
2018-06-27T13:29:52.900Z,30.40
2018-06-27T13:32:21.277Z,29.90
2018-06-27T13:34:49.771Z,31.20
2018-06-27T13:37:18.167Z,31.80
2018-06-27T13:39:46.506Z,31.50
2018-06-27T13:42:14.847Z,30.80
2018-06-27T13:44:43.231Z,30.00
2018-06-27T13:47:11.656Z,30.00
2018-06-27T13:49:40.084Z,30.00
2018-06-27T13:52:08.451Z,30.00
2018-06-27T13:54:36.829Z,31.20
2018-06-27T13:57:05.191Z,32.20
2018-06-27T13:59:33.558Z,33.10
2018-06-27T14:02:01.964Z,33.30
2018-06-27T14:04:30.379Z,34.50
2018-06-27T14:06:58.816Z,34.60
2018-06-27T14:09:27.181Z,34.30
2018-06-27T14:11:55.621Z,33.40
2018-06-27T14:14:24.111Z,32.80
2018-06-27T14:16:52.628Z,31.60
2018-06-27T14:19:20.996Z,31.00
2018-06-27T14:21:49.380Z,31.00
2018-06-27T14:24:17.812Z,31.30
2018-06-27T14:26:46.209Z,31.50
2018-06-27T14:29:19.122Z,31.70
2018-06-27T14:31:47.682Z,32.60
2018-06-27T14:34:16.095Z,32.70
2018-06-27T14:36:44.510Z,32.10
2018-06-27T14:39:12.900Z,32.30
2018-06-27T14:41:41.280Z,33.10
2018-06-27T14:44:09.639Z,32.70
2018-06-27T14:46:38.079Z,32.40
2018-06-27T14:49:06.484Z,32.40
2018-06-27T14:51:35.170Z,32.70
2018-06-27T14:54:03.688Z,33.20
2018-06-27T14:56:31.977Z,33.40
2018-06-27T14:59:00.534Z,33.50
2018-06-27T15:01:28.957Z,32.70
2018-06-27T15:03:57.980Z,32.30
2018-06-27T15:06:26.515Z,32.00
2018-06-27T15:08:54.925Z,31.50
2018-06-27T15:11:23.319Z,32.10
2018-06-27T15:13:51.733Z,32.80
2018-06-27T15:16:20.157Z,33.40
2018-06-27T15:18:48.498Z,33.90
2018-06-27T15:21:16.921Z,34.30
2018-06-27T15:23:45.411Z,34.50
2018-06-27T15:26:13.848Z,34.40
2018-06-27T15:28:42.555Z,34.80
2018-06-27T15:31:10.962Z,35.00
2018-06-27T15:33:39.425Z,35.70
2018-06-27T15:36:07.917Z,34.80
2018-06-27T15:38:36.270Z,34.50
2018-06-27T15:41:11.286Z,34.60
2018-06-27T15:43:39.652Z,34.60
2018-06-27T15:46:08.074Z,34.60
2018-06-27T15:48:36.478Z,34.80
2018-06-27T15:51:04.871Z,35.00
2018-06-27T15:53:33.263Z,35.10
2018-06-27T15:56:01.755Z,35.10
2018-06-27T15:58:30.109Z,35.60
2018-06-27T16:00:58.488Z,35.60
2018-06-27T16:03:26.877Z,35.60
2018-06-27T16:05:55.324Z,35.40
2018-06-27T16:08:23.700Z,35.50
2018-06-27T16:10:52.198Z,36.00
2018-06-27T16:13:20.660Z,36.40
2018-06-27T16:15:49.149Z,36.10
2018-06-27T16:18:24.066Z,36.20
2018-06-27T16:20:52.469Z,36.30
2018-06-27T16:23:21.056Z,36.60
2018-06-27T16:25:49.718Z,36.20
2018-06-27T16:28:18.117Z,35.70
2018-06-27T16:30:46.581Z,35.20
2018-06-27T16:33:14.965Z,35.10
2018-06-27T16:35:43.401Z,35.00
2018-06-27T16:38:11.952Z,35.20
2018-06-27T16:40:40.755Z,35.50
2018-06-27T16:43:09.220Z,35.60
2018-06-27T16:45:37.602Z,35.90
2018-06-27T16:48:06.100Z,36.00
2018-06-27T16:50:34.524Z,35.60
2018-06-27T16:53:02.956Z,35.90
2018-06-27T16:55:31.471Z,36.10
2018-06-27T16:57:59.982Z,35.80
2018-06-27T17:00:29.218Z,36.20
2018-06-27T17:02:57.694Z,36.30
2018-06-27T17:05:26.128Z,36.50
2018-06-27T17:07:54.509Z,36.30
2018-06-27T17:10:22.889Z,36.60
2018-06-27T17:12:51.354Z,36.60
2018-06-27T17:15:19.723Z,36.20
2018-06-27T17:17:48.106Z,36.80
2018-06-27T17:20:17.008Z,36.10
2018-06-27T17:22:45.411Z,35.40
2018-06-27T17:25:13.880Z,35.80
2018-06-27T17:27:42.243Z,36.40
2018-06-27T17:32:38.824Z,37.10
2018-06-27T17:35:07.231Z,36.80
2018-06-27T17:37:35.637Z,37.20
2018-06-27T17:40:04.273Z,37.20
2018-06-27T17:42:32.658Z,37.30
2018-06-27T17:45:01.047Z,37.70
2018-06-27T17:47:29.531Z,37.60
2018-06-27T17:49:57.950Z,37.90
2018-06-27T17:52:26.363Z,37.20
2018-06-27T17:54:54.763Z,37.70
2018-06-27T17:57:23.112Z,37.30
2018-06-27T17:59:51.532Z,37.80
2018-06-27T18:02:19.935Z,37.90
2018-06-27T18:04:48.317Z,38.30
2018-06-27T18:07:16.668Z,38.40
2018-06-27T18:09:45.049Z,38.70
2018-06-27T18:12:13.439Z,39.20
2018-06-27T18:14:41.850Z,39.40
2018-06-27T18:17:10.208Z,39.70
2018-06-27T18:19:38.622Z,39.80
2018-06-27T18:22:07.000Z,40.20
2018-06-27T18:24:35.437Z,40.70
2018-06-27T18:27:03.873Z,39.80
2018-06-27T18:29:32.272Z,39.10
2018-06-27T18:32:00.648Z,39.00
2018-06-27T18:34:29.634Z,38.60
2018-06-27T18:36:58.038Z,38.70
2018-06-27T18:39:26.525Z,38.90
2018-06-27T18:41:54.883Z,38.90
2018-06-27T18:44:23.258Z,38.90
2018-06-27T18:46:51.633Z,39.10
2018-06-27T18:49:20.059Z,39.20
2018-06-27T18:51:48.448Z,39.20
2018-06-27T18:54:16.845Z,39.40
2018-06-27T18:56:45.262Z,39.70
2018-06-27T18:59:13.653Z,39.80
2018-06-27T19:01:42.092Z,40.10
2018-06-27T19:04:10.550Z,40.30
2018-06-27T19:06:39.032Z,40.90
2018-06-27T19:09:10.808Z,41.40
2018-06-27T19:11:40.202Z,42.30
2018-06-27T19:14:08.839Z,43.00
2018-06-27T19:16:37.408Z,43.60
2018-06-27T19:19:06.021Z,44.40
2018-06-27T19:21:34.528Z,45.20
2018-06-27T19:24:02.955Z,45.90
2018-06-27T19:26:31.342Z,46.40
2018-06-27T19:28:59.710Z,46.80
2018-06-27T19:31:28.123Z,47.20
2018-06-27T19:33:56.583Z,47.60
2018-06-27T19:36:25.013Z,48.00
2018-06-27T19:38:53.405Z,48.40
2018-06-27T19:41:21.925Z,48.60
2018-06-27T19:43:50.307Z,48.90
2018-06-27T19:46:18.723Z,49.20
2018-06-27T19:48:48.228Z,49.40
2018-06-27T19:51:16.671Z,49.80
2018-06-27T19:53:45.069Z,50.00
2018-06-27T19:56:13.566Z,50.30
2018-06-27T19:58:41.948Z,50.50
2018-06-27T20:01:10.355Z,50.90
2018-06-27T20:03:38.713Z,51.20
2018-06-27T20:06:07.153Z,51.40
2018-06-27T20:08:36.093Z,51.90
2018-06-27T20:11:04.670Z,52.10
2018-06-27T20:13:33.055Z,52.40
2018-06-27T20:16:01.569Z,52.70
2018-06-27T20:18:29.896Z,52.90
2018-06-27T20:20:58.288Z,53.30
2018-06-27T20:23:26.646Z,53.70
2018-06-27T20:25:55.081Z,54.00
2018-06-27T20:28:23.467Z,54.30
2018-06-27T20:33:20.005Z,54.90
2018-06-27T20:35:49.026Z,55.30
2018-06-27T20:38:17.482Z,55.60
2018-06-27T20:40:45.912Z,55.90
2018-06-27T20:43:14.311Z,56.20
2018-06-27T20:45:42.751Z,56.50
2018-06-27T20:48:11.174Z,56.70
2018-06-27T20:50:39.532Z,57.00
2018-06-27T20:53:07.931Z,57.30
2018-06-27T20:55:36.309Z,57.40
2018-06-27T20:58:04.704Z,57.80
2018-06-27T21:00:33.064Z,57.90
2018-06-27T21:03:01.440Z,58.20
2018-06-27T21:05:29.840Z,58.20
2018-06-27T21:07:58.220Z,58.40
2018-06-27T21:10:26.600Z,58.50
2018-06-27T21:12:54.987Z,58.50
2018-06-27T21:15:23.446Z,58.80
2018-06-27T21:17:51.834Z,59.00
2018-06-27T21:20:20.305Z,59.20
2018-06-27T21:22:48.687Z,59.20
2018-06-27T21:25:17.126Z,59.30
2018-06-27T21:27:45.530Z,59.40
2018-06-27T21:30:13.927Z,59.60
2018-06-27T21:32:42.364Z,59.60
2018-06-27T21:35:10.745Z,59.90
2018-06-27T21:37:39.219Z,60.00
2018-06-27T21:40:07.637Z,60.20
2018-06-27T21:42:36.043Z,60.40
2018-06-27T21:45:04.463Z,60.60
2018-06-27T21:47:33.793Z,60.70
2018-06-27T21:50:02.164Z,60.90
2018-06-27T21:52:30.581Z,61.00
2018-06-27T21:54:58.970Z,61.20
2018-06-27T21:57:27.353Z,61.20
2018-06-27T21:59:55.835Z,61.50
2018-06-27T22:02:24.197Z,61.50
2018-06-27T22:04:52.585Z,61.80
2018-06-27T22:07:20.937Z,61.90
2018-06-27T22:09:49.286Z,61.90
2018-06-27T22:12:17.687Z,62.10
2018-06-27T22:14:46.118Z,62.10
2018-06-27T22:17:14.543Z,62.20
2018-06-27T22:19:42.972Z,62.40
2018-06-27T22:22:11.366Z,62.50
2018-06-27T22:24:39.765Z,62.60
2018-06-27T22:27:08.192Z,62.80
2018-06-27T22:29:36.558Z,63.10
2018-06-27T22:32:04.913Z,63.30
2018-06-27T22:34:33.283Z,63.40
2018-06-27T22:37:01.668Z,63.60
2018-06-27T22:39:30.087Z,63.90
2018-06-27T22:41:58.437Z,64.20
2018-06-27T22:44:27.208Z,64.40
2018-06-27T22:46:55.562Z,64.50
2018-06-27T22:49:23.965Z,64.60
2018-06-27T22:51:52.328Z,64.60
2018-06-27T22:54:20.745Z,64.90
2018-06-27T22:56:49.117Z,65.00
2018-06-27T22:59:17.500Z,65.20
2018-06-27T23:01:45.900Z,65.40
2018-06-27T23:04:14.309Z,65.50
2018-06-27T23:06:42.693Z,65.70
2018-06-27T23:09:11.444Z,65.90
2018-06-27T23:11:39.936Z,66.00
2018-06-27T23:14:08.415Z,66.20
2018-06-27T23:16:36.787Z,66.20
2018-06-27T23:19:05.202Z,66.40
2018-06-27T23:21:33.603Z,66.60
2018-06-27T23:24:01.987Z,66.60
2018-06-27T23:26:30.415Z,66.60
2018-06-27T23:28:58.844Z,66.70
2018-06-27T23:31:27.238Z,66.80
2018-06-27T23:33:55.599Z,66.80
2018-06-27T23:36:24.069Z,67.00
2018-06-27T23:38:52.439Z,66.90
2018-06-27T23:41:20.888Z,66.90
2018-06-27T23:43:49.882Z,66.90
2018-06-27T23:46:19.041Z,67.10
2018-06-27T23:48:47.398Z,67.00
2018-06-27T23:51:15.774Z,67.20
2018-06-27T23:53:44.116Z,67.20
2018-06-27T23:56:12.497Z,67.20
2018-06-27T23:58:40.873Z,67.40
